Komatsu, Japan
Current Conditions -  °F | °C
As of 11:00 PM on Saturday 25 Oct 2014 (Local Time) from RJNK Reporting Station
Few Clouds Few Clouds  
Wind Chill: 55°   Ceiling: Unl
Heat Index: 55°   Visibility: 6mi
Dew Point: 52°   Wind: 2mph
Humidity: 88%   Direction: NA
Pressure: 30.15"   Gusts: NA
Location:  36.41°N, 136.44°E
Report Text: RJNK 251400Z VRB02KT 9999 FEW020 13/11 Q1021
Loading
Personal Weather Stations






























Interactive Weather Map
Tropical Storm Tracking
New forecast layout! Learn more

10-Day Weather Forecast

Advertisements
Track Severe Weather on mobile